This is the latest recevied weather packets stored in our database for station/object N1TKS. If no packets are shown the sender has not sent any weather packets the latest 10 day(s).
| Time | Temp. | Humidity | Pressure | Rain* | Wind** | Luminosity | Snow |
|---|---|---|---|---|---|---|---|
| 1777865814 | 7.78° C | 71% | 1012.6 hPa | 0 mm | - | - | - |
| 1777865513 | 7.78° C | 71% | 1012.6 hPa | 0 mm | - | - | - |
| 1777865212 | 7.78° C | 70% | 1012.5 hPa | 0 mm | - | - | - |
| 1777864913 | 8.33° C | 70% | 1012.5 hPa | 0 mm | - | - | - |
| 1777864614 | 8.33° C | 70% | 1012.6 hPa | 0 mm | - | - | - |
| 1777864312 | 8.33° C | 69% | 1012.5 hPa | 0 mm | - | - | - |
| 1777864013 | 8.33° C | 68% | 1012.5 hPa | 0 mm | - | - | - |
| 1777863714 | 8.33° C | 67% | 1012.5 hPa | 0 mm | - | - | - |
| 1777863430 | 9.44° C | 63% | 1012.6 hPa | 0 mm | - | - | - |
| 1777863422 | 9.44° C | 61% | 1012.6 hPa | 0 mm | - | - | - |
| 1777863413 | 8.89° C | 65% | 1012.5 hPa | 0 mm | - | - | - |
| 1777863153 | 8.89° C | 65% | 1012.5 hPa | 0 mm | - | - | - |
| 1777863113 | 8.89° C | 65% | 1012.5 hPa | 0 mm | - | - | - |
| 1777862813 | 8.89° C | 64% | 1012.6 hPa | 0 mm | - | - | - |
| 1777862518 | 8.89° C | 64% | 1012.6 hPa | 0 mm | - | - | - |
| 1777862272 | 9.44° C | 63% | 1012.6 hPa | 0 mm | - | - | - |
| 1777862213 | 9.44° C | 63% | 1012.6 hPa | 0 mm | - | - | - |
| 1777861914 | 9.44° C | 61% | 1012.6 hPa | 0 mm | - | - | - |
| 1777861746 | 9.44° C | 62% | 1012.6 hPa | 0 mm | - | - | - |
| 1777861503 | 10° C | 59% | 1012.4 hPa | 0 mm | - | - | - |
| 1777861314 | 9.44° C | 62% | 1012.6 hPa | 0 mm | - | - | - |
| 1777861014 | 9.44° C | 62% | 1012.6 hPa | 0 mm | - | - | - |
| 1777860715 | 10° C | 61% | 1012.5 hPa | 0 mm | - | - | - |
| 1777860114 | 10° C | 59% | 1012.4 hPa | 0 mm | - | - | - |
| 1777859589 | 11.11° C | 53% | 1012.2 hPa | 0 mm | - | - | - |
* Rain latest hour (hover to see other rain measurements)
** Current wind speed in m/s (hover to see current wind gust speed)